sensor_id;sensor_type;location;lat;lon;timestamp;pressure;altitude;pressure_sealevel;temperature;humidity
33795;BME280;51430;52.242;21.118;2023-04-07T00:01:08;100215.02;;;5.41;100.00
33795;BME280;51430;52.242;21.118;2023-04-07T00:03:36;100214.42;;;5.42;100.00
33795;BME280;51430;52.242;21.118;2023-04-07T00:06:06;100214.94;;;5.46;100.00
33795;BME280;51430;52.242;21.118;2023-04-07T00:08:33;100212.79;;;5.47;100.00
33795;BME280;51430;52.242;21.118;2023-04-07T00:11:01;100209.92;;;5.51;100.00
33795;BME280;51430;52.242;21.118;2023-04-07T00:13:29;100211.67;;;5.51;100.00
33795;BME280;51430;52.242;21.118;2023-04-07T00:15:57;100207.23;;;5.53;100.00
33795;BME280;51430;52.242;21.118;2023-04-07T00:18:25;100206.45;;;5.52;100.00
33795;BME280;51430;52.242;21.118;2023-04-07T00:20:53;100201.77;;;5.55;100.00
33795;BME280;51430;52.242;21.118;2023-04-07T00:23:21;100205.77;;;5.55;100.00
33795;BME280;51430;52.242;21.118;2023-04-07T00:25:49;100201.09;;;5.58;100.00
33795;BME280;51430;52.242;21.118;2023-04-07T00:28:17;100204.04;;;5.58;100.00
33795;BME280;51430;52.242;21.118;2023-04-07T00:30:45;100202.80;;;5.58;100.00
33795;BME280;51430;52.242;21.118;2023-04-07T00:33:12;100201.44;;;5.55;100.00
33795;BME280;51430;52.242;21.118;2023-04-07T00:35:40;100197.04;;;5.59;100.00
33795;BME280;51430;52.242;21.118;2023-04-07T00:38:08;100197.43;;;5.61;100.00
33795;BME280;51430;52.242;21.118;2023-04-07T00:40:36;100194.32;;;5.64;100.00
33795;BME280;51430;52.242;21.118;2023-04-07T00:43:04;100197.46;;;5.69;100.00
33795;BME280;51430;52.242;21.118;2023-04-07T00:45:32;100193.34;;;5.72;100.00
33795;BME280;51430;52.242;21.118;2023-04-07T00:47:59;100192.60;;;5.73;100.00
33795;BME280;51430;52.242;21.118;2023-04-07T00:50:27;100191.98;;;5.75;100.00
33795;BME280;51430;52.242;21.118;2023-04-07T00:52:55;100193.31;;;5.72;100.00
33795;BME280;51430;52.242;21.118;2023-04-07T00:55:23;100188.01;;;5.77;100.00
33795;BME280;51430;52.242;21.118;2023-04-07T00:57:51;100193.65;;;5.78;100.00
33795;BME280;51430;52.242;21.118;2023-04-07T01:00:19;100189.54;;;5.81;100.00
33795;BME280;51430;52.242;21.118;2023-04-07T01:02:55;100192.96;;;5.78;100.00
33795;BME280;51430;52.242;21.118;2023-04-07T01:05:37;100187.25;;;5.81;100.00
33795;BME280;51430;52.242;21.118;2023-04-07T01:08:16;100185.45;;;5.79;100.00
33795;BME280;51430;52.242;21.118;2023-04-07T01:11:07;100187.05;;;5.79;100.00
33795;BME280;51430;52.242;21.118;2023-04-07T01:13:38;100185.73;;;5.78;100.00
33795;BME280;51430;52.242;21.118;2023-04-07T01:16:20;100185.04;;;5.81;100.00
33795;BME280;51430;52.242;21.118;2023-04-07T01:18:51;100180.29;;;5.82;100.00
33795;BME280;51430;52.242;21.118;2023-04-07T01:21:21;100182.08;;;5.84;100.00
33795;BME280;51430;52.242;21.118;2023-04-07T01:26:41;100178.53;;;5.88;100.00
33795;BME280;51430;52.242;21.118;2023-04-07T01:31:54;100172.80;;;5.89;100.00
33795;BME280;51430;52.242;21.118;2023-04-07T01:34:24;100178.55;;;5.91;100.00
33795;BME280;51430;52.242;21.118;2023-04-07T01:36:55;100167.98;;;5.94;100.00
33795;BME280;51430;52.242;21.118;2023-04-07T01:39:26;100171.42;;;5.98;100.00
33795;BME280;51430;52.242;21.118;2023-04-07T01:41:54;100169.67;;;6.04;100.00
33795;BME280;51430;52.242;21.118;2023-04-07T01:44:24;100171.34;;;6.05;100.00
33795;BME280;51430;52.242;21.118;2023-04-07T01:46:54;100167.36;;;6.08;100.00
33795;BME280;51430;52.242;21.118;2023-04-07T01:49:24;100166.44;;;6.09;100.00
33795;BME280;51430;52.242;21.118;2023-04-07T01:51:54;100163.41;;;6.10;100.00
33795;BME280;51430;52.242;21.118;2023-04-07T01:54:22;100162.50;;;6.08;100.00
33795;BME280;51430;52.242;21.118;2023-04-07T01:56:50;100169.10;;;6.13;100.00
33795;BME280;51430;52.242;21.118;2023-04-07T01:59:18;100168.09;;;6.13;100.00
33795;BME280;51430;52.242;21.118;2023-04-07T02:01:46;100171.64;;;6.14;100.00
33795;BME280;51430;52.242;21.118;2023-04-07T02:07:08;100160.59;;;6.14;100.00
33795;BME280;51430;52.242;21.118;2023-04-07T02:09:39;100164.83;;;6.15;100.00
33795;BME280;51430;52.242;21.118;2023-04-07T02:12:12;100167.09;;;6.21;100.00
33795;BME280;51430;52.242;21.118;2023-04-07T02:14:41;100166.70;;;6.21;100.00
33795;BME280;51430;52.242;21.118;2023-04-07T02:17:10;100166.75;;;6.26;100.00
33795;BME280;51430;52.242;21.118;2023-04-07T02:19:38;100168.67;;;6.26;100.00
33795;BME280;51430;52.242;21.118;2023-04-07T02:22:08;100166.59;;;6.26;100.00
33795;BME280;51430;52.242;21.118;2023-04-07T02:24:40;100164.61;;;6.27;100.00
33795;BME280;51430;52.242;21.118;2023-04-07T02:27:09;100164.50;;;6.29;100.00
33795;BME280;51430;52.242;21.118;2023-04-07T02:29:37;100165.80;;;6.36;100.00
33795;BME280;51430;52.242;21.118;2023-04-07T02:32:05;100165.46;;;6.39;100.00
33795;BME280;51430;52.242;21.118;2023-04-07T02:34:33;100162.04;;;6.41;100.00
33795;BME280;51430;52.242;21.118;2023-04-07T02:37:00;100163.48;;;6.43;100.00
33795;BME280;51430;52.242;21.118;2023-04-07T02:39:28;100161.52;;;6.46;100.00
33795;BME280;51430;52.242;21.118;2023-04-07T02:41:56;100164.48;;;6.48;100.00
33795;BME280;51430;52.242;21.118;2023-04-07T02:44:24;100164.34;;;6.51;100.00
33795;BME280;51430;52.242;21.118;2023-04-07T02:46:52;100164.56;;;6.47;100.00
33795;BME280;51430;52.242;21.118;2023-04-07T02:49:20;100163.48;;;6.48;100.00
33795;BME280;51430;52.242;21.118;2023-04-07T02:51:48;100165.08;;;6.50;100.00
33795;BME280;51430;52.242;21.118;2023-04-07T02:54:16;100167.55;;;6.52;100.00
33795;BME280;51430;52.242;21.118;2023-04-07T02:56:44;100166.09;;;6.53;100.00
33795;BME280;51430;52.242;21.118;2023-04-07T02:59:11;100158.61;;;6.54;100.00
33795;BME280;51430;52.242;21.118;2023-04-07T03:01:39;100162.77;;;6.54;100.00
33795;BME280;51430;52.242;21.118;2023-04-07T03:04:07;100166.45;;;6.56;100.00
33795;BME280;51430;52.242;21.118;2023-04-07T03:06:35;100165.35;;;6.60;100.00
33795;BME280;51430;52.242;21.118;2023-04-07T03:09:03;100165.77;;;6.58;100.00
33795;BME280;51430;52.242;21.118;2023-04-07T03:11:31;100165.16;;;6.57;100.00
33795;BME280;51430;52.242;21.118;2023-04-07T03:13:59;100164.55;;;6.58;100.00
33795;BME280;51430;52.242;21.118;2023-04-07T03:16:26;100161.91;;;6.57;100.00
33795;BME280;51430;52.242;21.118;2023-04-07T03:18:54;100167.91;;;6.57;100.00
33795;BME280;51430;52.242;21.118;2023-04-07T03:21:22;100168.28;;;6.60;100.00
33795;BME280;51430;52.242;21.118;2023-04-07T03:23:50;100164.55;;;6.61;100.00
33795;BME280;51430;52.242;21.118;2023-04-07T03:26:18;100166.67;;;6.63;100.00
33795;BME280;51430;52.242;21.118;2023-04-07T03:28:46;100168.55;;;6.63;100.00
33795;BME280;51430;52.242;21.118;2023-04-07T03:31:13;100170.09;;;6.61;100.00
33795;BME280;51430;52.242;21.118;2023-04-07T03:33:42;100174.83;;;6.60;100.00
33795;BME280;51430;52.242;21.118;2023-04-07T03:36:09;100170.11;;;6.63;100.00
33795;BME280;51430;52.242;21.118;2023-04-07T03:38:38;100170.56;;;6.65;100.00
33795;BME280;51430;52.242;21.118;2023-04-07T03:41:06;100171.97;;;6.64;100.00
33795;BME280;51430;52.242;21.118;2023-04-07T03:43:33;100174.36;;;6.68;100.00
33795;BME280;51430;52.242;21.118;2023-04-07T03:46:01;100172.02;;;6.69;100.00
33795;BME280;51430;52.242;21.118;2023-04-07T03:48:29;100172.67;;;6.72;100.00
33795;BME280;51430;52.242;21.118;2023-04-07T03:50:57;100172.46;;;6.76;100.00
33795;BME280;51430;52.242;21.118;2023-04-07T03:53:24;100170.05;;;6.78;100.00
33795;BME280;51430;52.242;21.118;2023-04-07T03:55:52;100168.86;;;6.78;100.00
33795;BME280;51430;52.242;21.118;2023-04-07T03:58:20;100170.17;;;6.76;100.00
33795;BME280;51430;52.242;21.118;2023-04-07T04:00:48;100169.11;;;6.79;100.00
33795;BME280;51430;52.242;21.118;2023-04-07T04:03:16;100168.98;;;6.81;100.00
33795;BME280;51430;52.242;21.118;2023-04-07T04:05:44;100166.81;;;6.80;100.00
33795;BME280;51430;52.242;21.118;2023-04-07T04:08:12;100171.50;;;6.80;100.00
33795;BME280;51430;52.242;21.118;2023-04-07T04:10:39;100171.54;;;6.82;100.00
33795;BME280;51430;52.242;21.118;2023-04-07T04:13:07;100166.58;;;6.81;100.00
33795;BME280;51430;52.242;21.118;2023-04-07T04:15:35;100166.41;;;6.84;100.00
33795;BME280;51430;52.242;21.118;2023-04-07T04:18:03;100170.74;;;6.84;100.00
33795;BME280;51430;52.242;21.118;2023-04-07T04:20:31;100174.73;;;6.86;100.00
33795;BME280;51430;52.242;21.118;2023-04-07T04:22:58;100182.58;;;6.88;100.00
33795;BME280;51430;52.242;21.118;2023-04-07T04:25:26;100186.77;;;6.93;100.00
33795;BME280;51430;52.242;21.118;2023-04-07T04:27:54;100186.66;;;6.95;100.00
33795;BME280;51430;52.242;21.118;2023-04-07T04:30:22;100188.37;;;6.95;100.00
33795;BME280;51430;52.242;21.118;2023-04-07T04:32:50;100190.06;;;6.99;100.00
33795;BME280;51430;52.242;21.118;2023-04-07T04:35:18;100186.23;;;6.99;100.00
33795;BME280;51430;52.242;21.118;2023-04-07T04:37:46;100189.20;;;6.96;100.00
33795;BME280;51430;52.242;21.118;2023-04-07T04:40:13;100186.63;;;6.98;100.00
33795;BME280;51430;52.242;21.118;2023-04-07T04:42:42;100184.64;;;7.02;100.00
33795;BME280;51430;52.242;21.118;2023-04-07T04:45:10;100192.02;;;7.03;100.00
33795;BME280;51430;52.242;21.118;2023-04-07T04:47:38;100189.64;;;7.05;100.00
33795;BME280;51430;52.242;21.118;2023-04-07T04:50:06;100190.34;;;7.02;100.00
33795;BME280;51430;52.242;21.118;2023-04-07T04:52:34;100191.62;;;7.06;100.00
33795;BME280;51430;52.242;21.118;2023-04-07T04:55:02;100193.80;;;7.13;100.00
33795;BME280;51430;52.242;21.118;2023-04-07T04:57:30;100193.30;;;7.15;100.00
33795;BME280;51430;52.242;21.118;2023-04-07T04:59:58;100192.16;;;7.17;100.00
33795;BME280;51430;52.242;21.118;2023-04-07T05:02:25;100194.56;;;7.17;100.00
33795;BME280;51430;52.242;21.118;2023-04-07T05:04:54;100194.33;;;7.18;100.00
33795;BME280;51430;52.242;21.118;2023-04-07T05:07:22;100193.19;;;7.17;100.00
33795;BME280;51430;52.242;21.118;2023-04-07T05:09:50;100190.18;;;7.20;100.00
33795;BME280;51430;52.242;21.118;2023-04-07T05:12:18;100190.27;;;7.25;100.00
33795;BME280;51430;52.242;21.118;2023-04-07T05:14:46;100191.23;;;7.23;100.00
33795;BME280;51430;52.242;21.118;2023-04-07T05:17:14;100193.27;;;7.24;100.00
33795;BME280;51430;52.242;21.118;2023-04-07T05:19:42;100193.10;;;7.24;100.00
33795;BME280;51430;52.242;21.118;2023-04-07T05:22:09;100196.61;;;7.25;100.00
33795;BME280;51430;52.242;21.118;2023-04-07T05:24:38;100199.25;;;7.30;100.00
33795;BME280;51430;52.242;21.118;2023-04-07T05:27:05;100197.83;;;7.39;100.00
33795;BME280;51430;52.242;21.118;2023-04-07T05:29:33;100196.02;;;7.45;100.00
33795;BME280;51430;52.242;21.118;2023-04-07T05:32:01;100196.06;;;7.47;100.00
33795;BME280;51430;52.242;21.118;2023-04-07T05:34:29;100194.23;;;7.51;100.00
33795;BME280;51430;52.242;21.118;2023-04-07T05:36:57;100195.59;;;7.54;100.00
33795;BME280;51430;52.242;21.118;2023-04-07T05:39:24;100197.39;;;7.61;100.00
33795;BME280;51430;52.242;21.118;2023-04-07T05:41:54;100193.52;;;7.59;100.00
33795;BME280;51430;52.242;21.118;2023-04-07T05:44:23;100195.86;;;7.63;100.00
33795;BME280;51430;52.242;21.118;2023-04-07T05:46:51;100199.09;;;7.64;100.00
33795;BME280;51430;52.242;21.118;2023-04-07T05:49:18;100199.90;;;7.65;100.00
33795;BME280;51430;52.242;21.118;2023-04-07T05:51:47;100201.88;;;7.67;100.00
33795;BME280;51430;52.242;21.118;2023-04-07T05:54:15;100207.00;;;7.62;100.00
33795;BME280;51430;52.242;21.118;2023-04-07T05:56:54;100203.03;;;7.65;100.00
33795;BME280;51430;52.242;21.118;2023-04-07T05:59:28;100203.46;;;7.66;100.00
33795;BME280;51430;52.242;21.118;2023-04-07T06:01:56;100202.41;;;7.74;100.00
33795;BME280;51430;52.242;21.118;2023-04-07T06:04:24;100202.19;;;7.75;100.00
33795;BME280;51430;52.242;21.118;2023-04-07T06:06:51;100200.79;;;7.80;100.00
33795;BME280;51430;52.242;21.118;2023-04-07T06:09:22;100199.44;;;7.87;100.00
33795;BME280;51430;52.242;21.118;2023-04-07T06:11:49;100198.02;;;7.95;100.00
33795;BME280;51430;52.242;21.118;2023-04-07T06:14:17;100196.00;;;8.02;100.00
33795;BME280;51430;52.242;21.118;2023-04-07T06:16:45;100192.94;;;8.17;100.00
33795;BME280;51430;52.242;21.118;2023-04-07T06:19:13;100192.50;;;8.28;100.00
33795;BME280;51430;52.242;21.118;2023-04-07T06:21:41;100191.31;;;8.35;100.00
33795;BME280;51430;52.242;21.118;2023-04-07T06:24:08;100193.17;;;8.43;100.00
33795;BME280;51430;52.242;21.118;2023-04-07T06:26:38;100191.10;;;8.48;100.00
33795;BME280;51430;52.242;21.118;2023-04-07T06:29:06;100194.80;;;8.57;100.00
33795;BME280;51430;52.242;21.118;2023-04-07T06:31:34;100200.30;;;8.75;100.00
33795;BME280;51430;52.242;21.118;2023-04-07T06:34:02;100195.93;;;8.90;100.00
33795;BME280;51430;52.242;21.118;2023-04-07T06:36:30;100196.30;;;8.90;100.00
33795;BME280;51430;52.242;21.118;2023-04-07T06:38:58;100192.99;;;8.92;100.00
33795;BME280;51430;52.242;21.118;2023-04-07T06:41:26;100193.91;;;8.99;100.00
33795;BME280;51430;52.242;21.118;2023-04-07T06:43:53;100196.80;;;8.95;100.00
33795;BME280;51430;52.242;21.118;2023-04-07T06:46:22;100196.13;;;9.06;100.00
33795;BME280;51430;52.242;21.118;2023-04-07T06:48:50;100201.31;;;9.26;100.00
33795;BME280;51430;52.242;21.118;2023-04-07T06:51:17;100201.84;;;9.30;100.00
33795;BME280;51430;52.242;21.118;2023-04-07T06:53:45;100199.81;;;9.41;100.00
33795;BME280;51430;52.242;21.118;2023-04-07T06:56:15;100199.52;;;9.54;100.00
33795;BME280;51430;52.242;21.118;2023-04-07T06:58:43;100200.84;;;9.71;100.00
33795;BME280;51430;52.242;21.118;2023-04-07T07:01:12;100200.88;;;9.80;100.00
33795;BME280;51430;52.242;21.118;2023-04-07T07:03:40;100198.80;;;9.80;100.00
33795;BME280;51430;52.242;21.118;2023-04-07T07:06:08;100194.41;;;9.69;99.90
33795;BME280;51430;52.242;21.118;2023-04-07T07:08:36;100191.98;;;9.62;99.85
33795;BME280;51430;52.242;21.118;2023-04-07T07:11:03;100193.50;;;9.60;99.83
33795;BME280;51430;52.242;21.118;2023-04-07T07:13:31;100190.23;;;9.62;99.89
33795;BME280;51430;52.242;21.118;2023-04-07T07:15:59;100196.98;;;9.72;99.95
33795;BME280;51430;52.242;21.118;2023-04-07T07:18:28;100200.30;;;9.81;99.85
33795;BME280;51430;52.242;21.118;2023-04-07T07:20:58;100202.57;;;9.92;99.81
33795;BME280;51430;52.242;21.118;2023-04-07T07:23:26;100198.42;;;10.08;99.77
33795;BME280;51430;52.242;21.118;2023-04-07T07:25:54;100198.96;;;10.22;99.41
33795;BME280;51430;52.242;21.118;2023-04-07T07:28:22;100202.01;;;10.36;99.07
33795;BME280;51430;52.242;21.118;2023-04-07T07:30:50;100205.24;;;10.39;98.51
33795;BME280;51430;52.242;21.118;2023-04-07T07:33:18;100207.95;;;10.42;98.34
33795;BME280;51430;52.242;21.118;2023-04-07T07:35:46;100211.19;;;10.52;98.20
33795;BME280;51430;52.242;21.118;2023-04-07T07:38:14;100211.39;;;10.63;98.17
33795;BME280;51430;52.242;21.118;2023-04-07T07:40:42;100213.40;;;10.68;97.34
33795;BME280;51430;52.242;21.118;2023-04-07T07:43:10;100214.54;;;10.61;96.93
33795;BME280;51430;52.242;21.118;2023-04-07T07:45:38;100214.33;;;10.48;96.90
33795;BME280;51430;52.242;21.118;2023-04-07T07:48:06;100216.30;;;10.32;97.01
33795;BME280;51430;52.242;21.118;2023-04-07T07:50:34;100220.39;;;10.22;97.23
33795;BME280;51430;52.242;21.118;2023-04-07T07:53:02;100219.35;;;10.31;97.90
33795;BME280;51430;52.242;21.118;2023-04-07T07:55:31;100219.36;;;10.42;98.04
33795;BME280;51430;52.242;21.118;2023-04-07T07:58:21;100218.72;;;10.43;98.15
33795;BME280;51430;52.242;21.118;2023-04-07T08:00:49;100222.60;;;10.43;98.62
33795;BME280;51430;52.242;21.118;2023-04-07T08:03:17;100222.95;;;10.62;98.46
33795;BME280;51430;52.242;21.118;2023-04-07T08:05:47;100223.88;;;10.73;97.89
33795;BME280;51430;52.242;21.118;2023-04-07T08:08:15;100223.60;;;10.72;97.44
33795;BME280;51430;52.242;21.118;2023-04-07T08:10:45;100220.52;;;10.78;97.80
33795;BME280;51430;52.242;21.118;2023-04-07T08:13:13;100221.17;;;10.85;97.84
33795;BME280;51430;52.242;21.118;2023-04-07T08:15:41;100220.71;;;10.99;97.80
33795;BME280;51430;52.242;21.118;2023-04-07T08:18:09;100219.88;;;11.16;97.74
33795;BME280;51430;52.242;21.118;2023-04-07T08:20:38;100225.16;;;11.28;97.03
33795;BME280;51430;52.242;21.118;2023-04-07T08:23:06;100222.17;;;11.26;96.52
33795;BME280;51430;52.242;21.118;2023-04-07T08:25:37;100220.10;;;11.28;96.38
33795;BME280;51430;52.242;21.118;2023-04-07T08:28:06;100218.95;;;11.36;96.26
33795;BME280;51430;52.242;21.118;2023-04-07T08:30:34;100221.66;;;11.43;96.12
33795;BME280;51430;52.242;21.118;2023-04-07T08:33:04;100222.96;;;11.53;95.86
33795;BME280;51430;52.242;21.118;2023-04-07T08:35:32;100225.09;;;11.50;95.15
33795;BME280;51430;52.242;21.118;2023-04-07T08:38:00;100223.37;;;11.39;94.83
33795;BME280;51430;52.242;21.118;2023-04-07T08:40:29;100224.34;;;11.42;95.44
33795;BME280;51430;52.242;21.118;2023-04-07T08:42:59;100225.77;;;11.52;95.42
33795;BME280;51430;52.242;21.118;2023-04-07T08:45:27;100224.79;;;11.65;95.76
33795;BME280;51430;52.242;21.118;2023-04-07T08:47:57;100224.73;;;11.87;95.51
33795;BME280;51430;52.242;21.118;2023-04-07T08:50:26;100227.76;;;11.96;94.47
33795;BME280;51430;52.242;21.118;2023-04-07T08:52:55;100230.69;;;11.99;93.90
33795;BME280;51430;52.242;21.118;2023-04-07T08:55:26;100230.12;;;11.91;93.84
33795;BME280;51430;52.242;21.118;2023-04-07T08:57:54;100224.20;;;11.87;93.66
33795;BME280;51430;52.242;21.118;2023-04-07T09:00:23;100225.09;;;11.93;93.55
33795;BME280;51430;52.242;21.118;2023-04-07T09:02:51;100227.71;;;11.99;93.51
33795;BME280;51430;52.242;21.118;2023-04-07T09:05:19;100226.60;;;12.04;93.43
33795;BME280;51430;52.242;21.118;2023-04-07T09:07:47;100227.23;;;12.05;93.30
33795;BME280;51430;52.242;21.118;2023-04-07T09:10:15;100228.38;;;12.16;93.09
33795;BME280;51430;52.242;21.118;2023-04-07T09:12:44;100230.52;;;12.17;92.58
33795;BME280;51430;52.242;21.118;2023-04-07T09:15:12;100225.00;;;12.12;92.64
33795;BME280;51430;52.242;21.118;2023-04-07T09:17:42;100224.95;;;12.23;92.89
33795;BME280;51430;52.242;21.118;2023-04-07T09:20:10;100222.45;;;12.26;92.63
33795;BME280;51430;52.242;21.118;2023-04-07T09:22:40;100222.29;;;12.15;92.11
33795;BME280;51430;52.242;21.118;2023-04-07T09:25:19;100220.30;;;12.10;92.36
33795;BME280;51430;52.242;21.118;2023-04-07T09:28:07;100217.64;;;12.06;93.12
33795;BME280;51430;52.242;21.118;2023-04-07T09:30:35;100218.53;;;12.08;93.51
33795;BME280;51430;52.242;21.118;2023-04-07T09:33:03;100216.65;;;12.20;93.29
33795;BME280;51430;52.242;21.118;2023-04-07T09:35:31;100207.85;;;12.37;93.30
33795;BME280;51430;52.242;21.118;2023-04-07T09:38:06;100212.42;;;12.43;92.51
33795;BME280;51430;52.242;21.118;2023-04-07T09:40:35;100214.56;;;12.44;92.62
33795;BME280;51430;52.242;21.118;2023-04-07T09:43:04;100211.35;;;12.51;92.18
33795;BME280;51430;52.242;21.118;2023-04-07T09:45:33;100214.60;;;12.52;91.98
33795;BME280;51430;52.242;21.118;2023-04-07T09:48:26;100216.17;;;12.54;92.10
33795;BME280;51430;52.242;21.118;2023-04-07T09:51:06;100216.23;;;12.39;92.68
33795;BME280;51430;52.242;21.118;2023-04-07T09:53:41;100215.56;;;12.34;93.29
33795;BME280;51430;52.242;21.118;2023-04-07T09:56:10;100217.56;;;12.48;93.75
33795;BME280;51430;52.242;21.118;2023-04-07T09:58:43;100215.02;;;12.69;93.53
33795;BME280;51430;52.242;21.118;2023-04-07T10:01:14;100214.43;;;12.83;93.25
33795;BME280;51430;52.242;21.118;2023-04-07T10:03:44;100217.48;;;13.12;92.63
33795;BME280;51430;52.242;21.118;2023-04-07T10:06:14;100219.88;;;13.25;91.54
33795;BME280;51430;52.242;21.118;2023-04-07T10:08:43;100222.41;;;13.18;91.17
33795;BME280;51430;52.242;21.118;2023-04-07T10:11:11;100222.70;;;13.22;91.18
33795;BME280;51430;52.242;21.118;2023-04-07T10:13:39;100226.56;;;13.38;90.53
33795;BME280;51430;52.242;21.118;2023-04-07T10:16:08;100228.85;;;13.32;90.47
33795;BME280;51430;52.242;21.118;2023-04-07T10:18:38;100224.28;;;13.15;90.91
33795;BME280;51430;52.242;21.118;2023-04-07T10:21:06;100228.64;;;12.93;91.64
33795;BME280;51430;52.242;21.118;2023-04-07T10:23:46;100231.57;;;12.86;91.71
33795;BME280;51430;52.242;21.118;2023-04-07T10:26:22;100233.04;;;12.83;92.13
33795;BME280;51430;52.242;21.118;2023-04-07T10:28:55;100233.06;;;13.02;92.20
33795;BME280;51430;52.242;21.118;2023-04-07T10:31:25;100229.11;;;13.10;91.99
33795;BME280;51430;52.242;21.118;2023-04-07T10:33:53;100233.31;;;13.10;91.60
33795;BME280;51430;52.242;21.118;2023-04-07T10:36:21;100233.91;;;13.19;91.13
33795;BME280;51430;52.242;21.118;2023-04-07T10:41:38;100236.54;;;13.32;90.51
33795;BME280;51430;52.242;21.118;2023-04-07T10:47:09;100239.45;;;13.03;90.58
33795;BME280;51430;52.242;21.118;2023-04-07T10:49:37;100236.80;;;13.08;91.01
33795;BME280;51430;52.242;21.118;2023-04-07T10:54:44;100242.55;;;13.24;90.68
33795;BME280;51430;52.242;21.118;2023-04-07T11:03:52;100243.27;;;13.56;91.02
33795;BME280;51430;52.242;21.118;2023-04-07T11:06:22;100241.94;;;13.59;90.50
33795;BME280;51430;52.242;21.118;2023-04-07T11:08:49;100249.30;;;13.83;89.91
33795;BME280;51430;52.242;21.118;2023-04-07T11:11:35;100249.13;;;14.09;88.97
33795;BME280;51430;52.242;21.118;2023-04-07T11:14:07;100246.20;;;14.31;87.73
33795;BME280;51430;52.242;21.118;2023-04-07T11:16:41;100250.31;;;14.39;86.82
33795;BME280;51430;52.242;21.118;2023-04-07T11:19:09;100247.14;;;14.32;86.24
33795;BME280;51430;52.242;21.118;2023-04-07T11:21:37;100251.08;;;14.12;86.11
33795;BME280;51430;52.242;21.118;2023-04-07T11:24:06;100247.69;;;13.96;86.76
33795;BME280;51430;52.242;21.118;2023-04-07T11:26:39;100247.34;;;13.73;87.06
33795;BME280;51430;52.242;21.118;2023-04-07T11:29:10;100252.34;;;13.55;87.91
33795;BME280;51430;52.242;21.118;2023-04-07T11:31:39;100254.22;;;13.44;88.71
33795;BME280;51430;52.242;21.118;2023-04-07T11:34:07;100255.68;;;13.33;89.30
33795;BME280;51430;52.242;21.118;2023-04-07T11:36:40;100255.07;;;13.34;89.30
33795;BME280;51430;52.242;21.118;2023-04-07T11:39:21;100258.11;;;13.34;89.89
33795;BME280;51430;52.242;21.118;2023-04-07T11:41:49;100260.19;;;13.26;90.57
33795;BME280;51430;52.242;21.118;2023-04-07T11:44:18;100262.85;;;13.10;91.94
33795;BME280;51430;52.242;21.118;2023-04-07T11:46:56;100262.67;;;12.86;93.12
33795;BME280;51430;52.242;21.118;2023-04-07T11:49:26;100262.95;;;12.63;94.62
33795;BME280;51430;52.242;21.118;2023-04-07T11:54:44;100270.65;;;12.24;98.19
33795;BME280;51430;52.242;21.118;2023-04-07T11:57:24;100269.27;;;12.18;99.43
33795;BME280;51430;52.242;21.118;2023-04-07T12:00:09;100272.54;;;12.15;100.00
33795;BME280;51430;52.242;21.118;2023-04-07T12:02:38;100270.14;;;12.12;100.00
33795;BME280;51430;52.242;21.118;2023-04-07T12:05:07;100268.97;;;12.19;100.00
33795;BME280;51430;52.242;21.118;2023-04-07T12:07:38;100268.59;;;12.34;100.00
33795;BME280;51430;52.242;21.118;2023-04-07T12:10:22;100267.44;;;12.49;100.00
33795;BME280;51430;52.242;21.118;2023-04-07T12:12:52;100265.24;;;12.67;100.00
33795;BME280;51430;52.242;21.118;2023-04-07T12:15:20;100265.56;;;12.69;100.00
33795;BME280;51430;52.242;21.118;2023-04-07T12:17:49;100266.27;;;12.79;100.00
33795;BME280;51430;52.242;21.118;2023-04-07T12:20:17;100265.46;;;12.86;100.00
33795;BME280;51430;52.242;21.118;2023-04-07T12:22:45;100269.19;;;12.95;100.00
33795;BME280;51430;52.242;21.118;2023-04-07T12:25:13;100271.05;;;13.08;100.00
33795;BME280;51430;52.242;21.118;2023-04-07T12:27:41;100273.94;;;13.17;99.94
33795;BME280;51430;52.242;21.118;2023-04-07T12:30:11;100276.48;;;13.08;99.24
33795;BME280;51430;52.242;21.118;2023-04-07T12:32:40;100281.11;;;13.15;98.94
33795;BME280;51430;52.242;21.118;2023-04-07T12:35:08;100280.30;;;13.42;98.35
33795;BME280;51430;52.242;21.118;2023-04-07T12:37:36;100283.20;;;13.95;96.48
33795;BME280;51430;52.242;21.118;2023-04-07T12:40:04;100285.67;;;14.08;90.62
33795;BME280;51430;52.242;21.118;2023-04-07T12:42:32;100287.84;;;13.90;90.16
33795;BME280;51430;52.242;21.118;2023-04-07T12:45:00;100284.95;;;13.54;90.08
33795;BME280;51430;52.242;21.118;2023-04-07T12:47:30;100290.27;;;13.21;91.19
33795;BME280;51430;52.242;21.118;2023-04-07T12:49:58;100293.27;;;13.14;90.54
33795;BME280;51430;52.242;21.118;2023-04-07T12:52:30;100297.15;;;13.00;89.61
33795;BME280;51430;52.242;21.118;2023-04-07T12:54:59;100296.83;;;12.67;88.80
33795;BME280;51430;52.242;21.118;2023-04-07T12:57:27;100300.45;;;12.44;89.41
33795;BME280;51430;52.242;21.118;2023-04-07T12:59:55;100303.73;;;12.32;89.17
33795;BME280;51430;52.242;21.118;2023-04-07T13:02:23;100304.89;;;12.26;87.85
33795;BME280;51430;52.242;21.118;2023-04-07T13:04:51;100305.71;;;12.37;87.00
33795;BME280;51430;52.242;21.118;2023-04-07T13:07:19;100304.14;;;12.45;87.06
33795;BME280;51430;52.242;21.118;2023-04-07T13:09:48;100308.72;;;12.53;86.82
33795;BME280;51430;52.242;21.118;2023-04-07T13:12:17;100312.31;;;12.68;86.34
33795;BME280;51430;52.242;21.118;2023-04-07T13:14:45;100313.80;;;12.83;86.28
33795;BME280;51430;52.242;21.118;2023-04-07T13:17:26;100317.44;;;12.68;85.16